メインページ
METAR-TAF:

METAR-TAF

空港 :

ゴアベイ, オンタリオ州, カナダ

緯度: 45-53N, 経度: 082-34W, 海抜: 193m

現時点の気象観測

当レポートは37分前の16:00(UTC)に作成
南西の風 5kt、南/南西から西/北西の間で変化する
気温 24°C
湿度 69%
気圧 1011 hPa
視程: 14.5km
高度7500ftの雲はほとんどない

METAR: CYZE 211600Z AUTO 23005KT 210V300 9SM FEW075 24/18 A2985 RMK SLP108 DENSITY ALT 1800FT

時間: 12:37 (16:37 UTC)

予報

当レポートは2時間59分前の13:38(UTC)に作成
予報は21日の 14時(UTC)から 21日の 22時(UTC)まで有効
変向風 3kt
視程: 10km
晴天
21日の 1700時(UTC)から
西/北西の風 8kt
視程: 10km
高度6000ftの千切れ雲あり
21日の 17時(UTC)から 21日の 21時(UTC)まで一時的に
視程: 10km
高度4000ftの千切れ雲あり
弱いにわか雨
21日の 2100時(UTC)から
西の風 10kt
視程: 10km
高度6000ftの雲はほとんどない

TAF: CYZE 211338Z 2114/2122 VRB03KT P6SM SKC FM211700 30008KT P6SM BKN060 TEMPO 2117/2121 P6SM -SHRA BKN040 FM212100 26010KT P6SM FEW060 RMK FCST BASED ON AUTO OBS. NXT FCST BY 212000Z

4,000以上の空港の気象観測と天気予報(METAR報とTAF報)

利用可能な観測所は地図上に黄色い丸と赤い丸で示す。

丸の上にカーソルを重ねると観測所名を参照できる。

次にクリックすると気象観測と天気予報を参照できる。

マップの切り替え:黒色「×」印の緑ボタンをクリックして拡大、「-」印の緑ボタンをクリックして縮小、緑色の三角印をクリックして隣りの地図に切り替え


METAR-TAF: